createdAt,value
2023-02-19T00:00:24.502Z,3.33
2023-02-19T00:01:15.628Z,3.92
2023-02-19T00:01:57.352Z,3.83
2023-02-19T00:02:38.972Z,3.90
2023-02-19T00:03:20.610Z,4.00
2023-02-19T00:04:07.950Z,4.30
2023-02-19T00:04:49.659Z,3.95
2023-02-19T00:05:31.376Z,4.35
2023-02-19T00:06:13.120Z,4.20
2023-02-19T00:06:54.802Z,3.90
2023-02-19T00:07:36.542Z,3.58
2023-02-19T00:08:18.346Z,4.20
2023-02-19T00:09:00.614Z,4.10
2023-02-19T00:09:42.391Z,3.78
2023-02-19T00:10:24.057Z,4.60
2023-02-19T00:11:08.184Z,4.03
2023-02-19T00:11:50.075Z,4.13
2023-02-19T00:12:31.797Z,4.15
2023-02-19T00:13:14.805Z,3.90
2023-02-19T00:13:58.183Z,4.00
2023-02-19T00:14:39.881Z,4.30
2023-02-19T00:15:21.599Z,4.85
2023-02-19T00:16:12.254Z,4.65
2023-02-19T00:16:54.076Z,4.47
2023-02-19T00:17:35.866Z,4.43
2023-02-19T00:18:17.571Z,3.90
2023-02-19T00:19:00.441Z,4.40
2023-02-19T00:19:42.110Z,4.90
2023-02-19T00:20:23.799Z,4.43
2023-02-19T00:21:06.019Z,4.35
2023-02-19T00:21:50.879Z,4.40
2023-02-19T00:22:32.666Z,4.72
2023-02-19T00:23:14.481Z,5.43
2023-02-19T00:23:59.551Z,4.85
2023-02-19T00:24:41.921Z,5.60
2023-02-19T00:25:26.566Z,4.80
2023-02-19T00:26:18.036Z,4.53
2023-02-19T00:27:03.503Z,4.82
2023-02-19T00:27:45.185Z,4.65
2023-02-19T00:28:26.926Z,4.90
2023-02-19T00:29:13.245Z,4.90
2023-02-19T00:29:54.953Z,5.20
2023-02-19T00:30:36.633Z,4.30
2023-02-19T00:31:32.150Z,4.57
2023-02-19T00:32:14.710Z,5.15
2023-02-19T00:32:56.309Z,4.93
2023-02-19T00:33:38.044Z,5.28
2023-02-19T00:34:19.723Z,4.93
2023-02-19T00:35:01.565Z,5.00
2023-02-19T00:35:43.224Z,4.88
2023-02-19T00:36:26.256Z,5.10
2023-02-19T00:37:07.993Z,4.60
2023-02-19T00:37:52.534Z,5.15
2023-02-19T00:38:39.458Z,4.80
2023-02-19T00:39:21.475Z,5.65
2023-02-19T00:40:03.273Z,5.00
2023-02-19T00:40:45.040Z,5.13
2023-02-19T00:41:26.914Z,4.55
2023-02-19T00:42:08.602Z,4.93
2023-02-19T00:42:50.264Z,4.68
2023-02-19T00:43:31.904Z,5.05
2023-02-19T00:44:14.738Z,5.10
2023-02-19T00:44:56.402Z,4.50
2023-02-19T00:45:38.243Z,5.20
2023-02-19T00:46:25.590Z,4.97
2023-02-19T00:47:07.404Z,4.72
2023-02-19T00:47:49.117Z,4.93
2023-02-19T00:48:30.745Z,4.63
2023-02-19T00:49:23.066Z,4.50
2023-02-19T00:50:04.820Z,4.70
2023-02-19T00:50:46.564Z,4.80
2023-02-19T00:51:31.155Z,4.40
2023-02-19T00:52:12.906Z,5.80
2023-02-19T00:52:54.581Z,4.80
2023-02-19T00:53:36.372Z,5.25
2023-02-19T00:54:18.731Z,5.07
2023-02-19T00:55:00.892Z,4.40
2023-02-19T00:55:43.114Z,5.03
2023-02-19T00:56:25.215Z,4.85
2023-02-19T00:57:06.945Z,4.70
2023-02-19T00:57:48.825Z,5.25
2023-02-19T00:58:30.528Z,5.10
2023-02-19T00:59:12.309Z,4.38
2023-02-19T00:59:53.993Z,4.78
2023-02-19T01:00:35.715Z,4.50
2023-02-19T01:01:18.478Z,4.60
2023-02-19T01:02:00.234Z,4.50
2023-02-19T01:02:41.982Z,4.40
2023-02-19T01:03:24.005Z,4.13
2023-02-19T01:04:06.902Z,4.45
2023-02-19T01:04:48.855Z,4.05
2023-02-19T01:05:30.625Z,4.22
2023-02-19T01:06:15.300Z,4.70
2023-02-19T01:06:59.584Z,4.90
2023-02-19T01:07:41.249Z,3.65
2023-02-19T01:08:23.019Z,4.53
2023-02-19T01:09:06.008Z,4.78
2023-02-19T01:09:47.742Z,4.25
2023-02-19T01:10:29.540Z,3.97
2023-02-19T01:11:12.464Z,4.10
2023-02-19T01:11:54.325Z,4.00
2023-02-19T01:12:35.945Z,3.97
2023-02-19T01:13:18.521Z,4.13
2023-02-19T01:14:01.586Z,4.43
2023-02-19T01:14:43.536Z,4.50
2023-02-19T01:15:25.243Z,4.28
2023-02-19T01:16:16.190Z,4.47
2023-02-19T01:16:57.977Z,3.95
2023-02-19T01:17:39.593Z,4.20
2023-02-19T01:18:21.302Z,4.28
2023-02-19T01:19:03.178Z,3.67
2023-02-19T01:19:44.901Z,4.13
2023-02-19T01:20:27.065Z,4.47
2023-02-19T01:21:14.676Z,3.80
2023-02-19T01:21:56.302Z,4.00
2023-02-19T01:22:37.992Z,3.80
2023-02-19T01:23:21.184Z,3.97
2023-02-19T01:24:02.861Z,3.70
2023-02-19T01:24:44.723Z,4.38
2023-02-19T01:25:26.350Z,3.80
2023-02-19T01:26:11.290Z,3.75
2023-02-19T01:26:53.075Z,4.30
2023-02-19T01:27:34.727Z,3.85
2023-02-19T01:28:16.352Z,3.80
2023-02-19T01:29:00.193Z,3.55
2023-02-19T01:29:42.534Z,3.92
2023-02-19T01:30:24.379Z,3.95
2023-02-19T01:31:08.522Z,3.45
2023-02-19T01:31:50.513Z,3.42
2023-02-19T01:32:32.187Z,3.80
2023-02-19T01:33:13.925Z,3.53
2023-02-19T01:33:58.811Z,3.40
2023-02-19T01:34:40.621Z,3.30
2023-02-19T01:35:22.979Z,3.47
2023-02-19T01:36:05.995Z,3.00
2023-02-19T01:36:48.008Z,3.25
2023-02-19T01:37:29.750Z,3.13
2023-02-19T01:38:11.433Z,2.97
2023-02-19T01:38:53.071Z,2.72
2023-02-19T01:39:34.714Z,3.47
2023-02-19T01:40:16.604Z,2.63
2023-02-19T01:41:00.710Z,3.17
2023-02-19T01:41:43.384Z,2.90
2023-02-19T01:42:25.032Z,2.88
2023-02-19T01:43:17.183Z,2.70
2023-02-19T01:44:27.683Z,2.60
2023-02-19T01:45:32.162Z,2.85
2023-02-19T01:46:13.768Z,2.85
2023-02-19T01:46:57.615Z,3.30
2023-02-19T01:47:39.315Z,2.58
2023-02-19T01:48:25.774Z,2.60
2023-02-19T01:49:32.426Z,2.80
2023-02-19T01:50:14.147Z,2.22
2023-02-19T01:51:18.443Z,2.45
2023-02-19T01:52:13.910Z,2.38
2023-02-19T01:52:56.387Z,2.30
2023-02-19T01:53:41.680Z,3.05
2023-02-19T01:54:27.052Z,3.00
2023-02-19T01:55:12.723Z,2.90
2023-02-19T01:55:59.197Z,2.47
2023-02-19T01:56:42.667Z,2.53
2023-02-19T01:57:28.898Z,3.05
2023-02-19T01:58:10.843Z,3.00
2023-02-19T01:58:53.969Z,3.10
2023-02-19T01:59:35.630Z,3.00
2023-02-19T02:00:17.715Z,3.28
2023-02-19T02:01:02.098Z,3.25
2023-02-19T02:01:43.991Z,2.90
2023-02-19T02:02:27.365Z,3.05
2023-02-19T02:03:09.306Z,3.17
2023-02-19T02:03:52.084Z,3.40
2023-02-19T02:04:34.059Z,3.22
2023-02-19T02:05:41.202Z,3.33
2023-02-19T02:06:37.830Z,3.20
2023-02-19T02:07:38.228Z,3.42
2023-02-19T02:08:39.536Z,3.70
2023-02-19T02:09:44.754Z,3.15
2023-02-19T02:10:26.468Z,3.83
2023-02-19T02:11:08.451Z,3.13
2023-02-19T02:11:52.613Z,3.17
2023-02-19T02:12:35.355Z,3.00
2023-02-19T02:13:19.474Z,2.83
2023-02-19T02:14:01.276Z,2.83
2023-02-19T02:14:48.114Z,2.35
2023-02-19T02:15:40.055Z,2.58
2023-02-19T02:16:36.644Z,3.28
2023-02-19T02:17:42.304Z,2.85
2023-02-19T02:18:50.970Z,2.80
2023-02-19T02:19:38.172Z,2.80
2023-02-19T02:20:49.957Z,2.55
2023-02-19T02:21:51.680Z,2.70
2023-02-19T02:23:00.664Z,2.58
2023-02-19T02:24:13.516Z,2.53
2023-02-19T02:25:30.393Z,2.53
2023-02-19T02:26:40.019Z,2.13
2023-02-19T02:27:21.793Z,2.30
2023-02-19T02:28:18.561Z,2.47
2023-02-19T02:29:48.503Z,2.38
2023-02-19T02:30:47.479Z,2.53
2023-02-19T02:31:37.145Z,2.95
2023-02-19T02:32:26.838Z,2.10
2023-02-19T02:33:21.361Z,2.22
2023-02-19T02:34:21.467Z,2.13
2023-02-19T02:35:11.133Z,2.08
2023-02-19T02:36:05.971Z,1.90
2023-02-19T02:36:53.266Z,2.40
2023-02-19T02:37:38.653Z,2.00
2023-02-19T02:38:27.419Z,2.17
2023-02-19T02:39:13.305Z,2.10
2023-02-19T02:39:58.420Z,2.05
2023-02-19T02:40:44.470Z,2.00
2023-02-19T02:41:27.495Z,2.10
2023-02-19T02:42:27.557Z,2.10
2023-02-19T02:43:22.086Z,2.15
2023-02-19T02:44:03.844Z,2.03
2023-02-19T02:45:05.732Z,1.65
2023-02-19T02:45:49.709Z,2.20
2023-02-19T02:46:46.651Z,1.98
2023-02-19T02:47:41.846Z,1.92
2023-02-19T02:48:43.418Z,1.65
2023-02-19T02:49:26.077Z,1.75
2023-02-19T02:50:11.795Z,1.67
2023-02-19T02:51:04.314Z,2.00
2023-02-19T02:51:52.861Z,1.63
2023-02-19T02:53:01.687Z,1.88
2023-02-19T02:54:13.189Z,1.85
2023-02-19T02:55:04.075Z,1.80
2023-02-19T02:55:51.718Z,1.80
2023-02-19T02:56:35.124Z,1.90
2023-02-19T02:57:19.117Z,1.77
2023-02-19T02:58:06.686Z,1.75
2023-02-19T02:58:51.221Z,1.50
2023-02-19T02:59:36.947Z,2.05
2023-02-19T03:00:19.013Z,1.52
2023-02-19T03:02:00.729Z,1.50
2023-02-19T03:02:43.629Z,1.70
2023-02-19T03:03:32.324Z,1.67
2023-02-19T03:04:21.788Z,1.70
2023-02-19T03:05:27.845Z,1.30
2023-02-19T03:06:13.123Z,1.80
2023-02-19T03:06:56.476Z,1.40
2023-02-19T03:07:53.932Z,2.05
2023-02-19T03:08:52.853Z,1.52
2023-02-19T03:09:43.089Z,1.60
2023-02-19T03:10:34.872Z,1.30
2023-02-19T03:11:36.639Z,1.33
2023-02-19T03:12:38.972Z,1.20
2023-02-19T03:13:47.278Z,1.33
2023-02-19T03:15:02.368Z,1.30
2023-02-19T03:16:21.458Z,0.95
2023-02-19T03:17:30.237Z,1.17
2023-02-19T03:18:35.200Z,1.27
2023-02-19T03:19:20.299Z,0.90
2023-02-19T03:20:07.668Z,1.00
2023-02-19T03:20:54.918Z,1.10
2023-02-19T03:21:39.525Z,1.02
2023-02-19T03:22:27.673Z,0.90
2023-02-19T03:23:11.225Z,0.93
2023-02-19T03:24:12.072Z,1.00
2023-02-19T03:25:38.817Z,0.98
2023-02-19T03:26:21.654Z,0.90
2023-02-19T03:27:09.342Z,0.70
2023-02-19T03:27:58.443Z,1.00
2023-02-19T03:29:02.109Z,0.88
2023-02-19T03:29:46.079Z,0.90
2023-02-19T03:30:35.417Z,1.10
2023-02-19T03:31:21.231Z,1.10
2023-02-19T03:32:18.921Z,0.85
2023-02-19T03:33:08.028Z,1.00
2023-02-19T03:33:57.511Z,0.90
2023-02-19T03:34:52.109Z,1.00
2023-02-19T03:35:40.105Z,1.00
2023-02-19T03:36:26.453Z,0.80
2023-02-19T03:37:16.979Z,0.85
2023-02-19T03:38:05.005Z,0.75
2023-02-19T03:39:13.141Z,0.77
2023-02-19T03:39:55.855Z,0.90
2023-02-19T03:40:50.233Z,0.80
2023-02-19T03:41:52.824Z,0.90
2023-02-19T03:42:55.040Z,0.75
2023-02-19T03:43:47.643Z,0.90
2023-02-19T03:44:42.031Z,1.45
2023-02-19T03:45:26.625Z,0.93
2023-02-19T03:46:32.206Z,0.77
2023-02-19T03:47:24.288Z,1.10
2023-02-19T03:48:24.929Z,0.80
2023-02-19T03:49:23.743Z,0.88
2023-02-19T03:50:19.873Z,0.98
2023-02-19T03:51:30.234Z,1.30
2023-02-19T03:52:47.095Z,0.75
2023-02-19T03:53:32.098Z,1.52
2023-02-19T03:54:23.203Z,0.85
2023-02-19T03:55:22.448Z,1.13
2023-02-19T03:56:24.784Z,1.13
2023-02-19T03:57:11.690Z,0.95
2023-02-19T03:58:20.348Z,1.75
2023-02-19T03:59:34.276Z,1.05
2023-02-19T04:00:22.512Z,0.98
2023-02-19T04:01:18.344Z,1.38
2023-02-19T04:02:12.389Z,1.00
2023-02-19T04:03:00.128Z,1.20
2023-02-19T04:03:51.388Z,2.83
2023-02-19T04:04:45.256Z,1.27
2023-02-19T04:05:30.790Z,1.45
2023-02-19T04:06:20.753Z,1.55
2023-02-19T04:07:02.611Z,1.30
2023-02-19T04:07:51.488Z,1.75
2023-02-19T04:08:42.062Z,1.42
2023-02-19T04:09:29.931Z,1.45
2023-02-19T04:10:19.902Z,1.50
2023-02-19T04:11:05.899Z,1.73
2023-02-19T04:11:52.719Z,1.50
2023-02-19T04:12:39.027Z,0.93
2023-02-19T04:13:27.085Z,1.00
2023-02-19T04:14:26.964Z,1.15
2023-02-19T04:15:14.285Z,1.10
2023-02-19T04:16:00.950Z,1.55
2023-02-19T04:16:49.743Z,1.40
2023-02-19T04:17:39.239Z,1.27
2023-02-19T04:18:26.390Z,1.58
2023-02-19T04:19:14.093Z,1.08
2023-02-19T04:19:58.487Z,1.60
2023-02-19T04:20:43.844Z,1.58
2023-02-19T04:21:29.106Z,1.58
2023-02-19T04:22:12.348Z,1.70
2023-02-19T04:22:54.575Z,1.73
2023-02-19T04:23:43.641Z,1.30
2023-02-19T04:24:31.484Z,1.52
2023-02-19T04:25:13.166Z,1.45
2023-02-19T04:26:00.625Z,1.25
2023-02-19T04:26:43.641Z,1.00
2023-02-19T04:27:25.281Z,1.42
2023-02-19T04:28:08.260Z,1.60
2023-02-19T04:28:49.974Z,1.70
2023-02-19T04:29:31.783Z,1.55
2023-02-19T04:30:14.742Z,1.95
2023-02-19T04:30:56.478Z,2.35
2023-02-19T04:31:38.586Z,2.83
2023-02-19T04:32:20.352Z,2.85
2023-02-19T04:33:01.983Z,3.00
2023-02-19T04:33:43.724Z,2.65
2023-02-19T04:34:25.417Z,2.78
2023-02-19T04:35:07.143Z,3.13
2023-02-19T04:35:48.942Z,3.15
2023-02-19T04:36:32.037Z,3.33
2023-02-19T04:37:13.698Z,3.42
2023-02-19T04:37:55.335Z,3.45
2023-02-19T04:38:37.025Z,3.85
2023-02-19T04:39:18.748Z,3.30
2023-02-19T04:40:00.461Z,4.20
2023-02-19T04:40:42.210Z,3.90
2023-02-19T04:41:23.845Z,4.03
2023-02-19T04:42:05.631Z,4.00
2023-02-19T04:42:47.259Z,4.38
2023-02-19T04:43:29.019Z,4.20
2023-02-19T04:44:10.615Z,4.45
2023-02-19T04:44:52.241Z,4.50
2023-02-19T04:45:33.851Z,4.60
2023-02-19T04:46:15.529Z,4.10
2023-02-19T04:46:57.268Z,4.72
2023-02-19T04:47:38.875Z,4.50
2023-02-19T04:48:20.538Z,4.28
2023-02-19T04:49:02.220Z,4.45
2023-02-19T04:49:45.131Z,4.57
2023-02-19T04:50:26.815Z,4.50
2023-02-19T04:51:09.657Z,4.50
2023-02-19T04:51:51.491Z,3.85
2023-02-19T04:52:36.304Z,4.35
2023-02-19T04:53:20.723Z,4.57
2023-02-19T04:54:02.377Z,5.28
2023-02-19T04:54:44.027Z,5.07
2023-02-19T04:55:25.870Z,4.97
2023-02-19T04:56:14.746Z,5.20
2023-02-19T04:56:57.453Z,5.68
2023-02-19T04:57:39.060Z,5.60
2023-02-19T04:58:21.316Z,5.72
2023-02-19T04:59:03.173Z,5.47
2023-02-19T04:59:46.293Z,5.97
2023-02-19T05:00:28.018Z,5.70
2023-02-19T05:01:11.197Z,6.30
2023-02-19T05:01:53.003Z,6.50
2023-02-19T05:02:34.881Z,6.53
2023-02-19T05:03:16.485Z,7.20
2023-02-19T05:03:58.858Z,6.90
2023-02-19T05:04:41.348Z,7.28
2023-02-19T05:05:23.055Z,7.25
2023-02-19T05:06:07.275Z,8.15
2023-02-19T05:06:48.950Z,7.65
2023-02-19T05:07:30.695Z,8.25
2023-02-19T05:08:12.587Z,8.77
2023-02-19T05:08:54.299Z,9.48
2023-02-19T05:09:35.946Z,9.82
2023-02-19T05:10:17.646Z,10.20
2023-02-19T05:11:01.128Z,9.98
2023-02-19T05:11:43.050Z,10.35
2023-02-19T05:12:24.701Z,10.52
2023-02-19T05:13:06.366Z,10.40
2023-02-19T05:13:48.085Z,10.23
2023-02-19T05:14:29.768Z,10.38
2023-02-19T05:15:11.449Z,10.77
2023-02-19T05:15:57.884Z,9.43
2023-02-19T05:16:39.552Z,8.82
2023-02-19T05:17:21.310Z,10.15
2023-02-19T05:18:03.610Z,10.38
2023-02-19T05:18:47.122Z,10.48
2023-02-19T05:19:28.747Z,10.60
2023-02-19T05:20:10.767Z,10.68
2023-02-19T05:20:53.498Z,9.98
2023-02-19T05:21:35.187Z,9.75
2023-02-19T05:22:19.548Z,9.90
2023-02-19T05:23:01.171Z,10.10
2023-02-19T05:23:43.542Z,9.45
2023-02-19T05:24:25.145Z,8.98
2023-02-19T05:25:07.014Z,8.93
2023-02-19T05:25:48.695Z,8.60
2023-02-19T05:26:31.214Z,9.32
2023-02-19T05:27:13.039Z,9.57
2023-02-19T05:28:14.665Z,8.95
2023-02-19T05:28:56.258Z,9.13
2023-02-19T05:29:37.944Z,8.70
2023-02-19T05:30:19.800Z,9.38
2023-02-19T05:31:06.736Z,9.13
2023-02-19T05:31:49.277Z,8.80
2023-02-19T05:32:31.623Z,8.55
2023-02-19T05:33:14.424Z,8.40
2023-02-19T05:33:56.600Z,8.05
2023-02-19T05:34:38.239Z,8.57
2023-02-19T05:35:19.933Z,7.85
2023-02-19T05:36:09.438Z,7.80
2023-02-19T05:36:51.521Z,6.90
2023-02-19T05:37:33.219Z,7.00
2023-02-19T05:38:16.018Z,6.72
2023-02-19T05:38:57.998Z,6.85
2023-02-19T05:39:39.742Z,6.53
2023-02-19T05:40:21.418Z,6.47
2023-02-19T05:41:18.105Z,6.65
2023-02-19T05:41:59.847Z,6.60
2023-02-19T05:42:41.664Z,6.28
2023-02-19T05:43:23.281Z,6.50
2023-02-19T05:44:04.946Z,6.40
2023-02-19T05:44:46.624Z,5.80
2023-02-19T05:45:28.322Z,6.45
2023-02-19T05:46:12.051Z,6.15
2023-02-19T05:46:53.785Z,5.88
2023-02-19T05:47:35.532Z,5.43
2023-02-19T05:48:17.191Z,5.68
2023-02-19T05:48:58.920Z,6.45
2023-02-19T05:49:40.687Z,5.95
2023-02-19T05:50:23.783Z,5.85
2023-02-19T05:51:11.286Z,5.20
2023-02-19T05:51:53.088Z,5.88
2023-02-19T05:52:34.909Z,5.78
2023-02-19T05:53:16.532Z,6.72
2023-02-19T05:53:58.551Z,7.13
2023-02-19T05:54:40.352Z,7.40
2023-02-19T05:55:22.270Z,6.88
2023-02-19T05:56:04.449Z,7.65
2023-02-19T05:56:46.108Z,7.10
2023-02-19T05:57:28.033Z,8.20
2023-02-19T05:58:09.711Z,8.10
2023-02-19T05:58:51.902Z,8.23
2023-02-19T05:59:33.567Z,8.40
2023-02-19T06:00:17.799Z,8.50
2023-02-19T06:00:59.511Z,8.60
2023-02-19T06:01:41.656Z,8.32
2023-02-19T06:02:23.308Z,7.97
2023-02-19T06:03:04.980Z,9.30
2023-02-19T06:03:46.870Z,8.45
2023-02-19T06:04:28.677Z,8.40
2023-02-19T06:05:10.908Z,8.23
2023-02-19T06:05:52.716Z,8.20
2023-02-19T06:06:34.432Z,8.32
2023-02-19T06:07:16.127Z,7.72
2023-02-19T06:07:57.772Z,7.65
2023-02-19T06:08:39.445Z,7.13
2023-02-19T06:09:21.048Z,7.25
2023-02-19T06:10:02.824Z,7.68
2023-02-19T06:10:44.477Z,8.30
2023-02-19T06:11:26.197Z,8.18
2023-02-19T06:12:08.129Z,7.90
2023-02-19T06:12:53.127Z,8.05
2023-02-19T06:13:34.780Z,7.82
2023-02-19T06:14:16.466Z,7.28
2023-02-19T06:14:58.252Z,7.43
2023-02-19T06:15:39.975Z,6.75
2023-02-19T06:16:22.128Z,7.50
2023-02-19T06:17:03.931Z,7.22
2023-02-19T06:17:45.687Z,6.70
2023-02-19T06:18:27.356Z,7.50
2023-02-19T06:19:09.394Z,7.22
2023-02-19T06:19:51.215Z,7.50
2023-02-19T06:20:33.130Z,6.65
2023-02-19T06:21:16.333Z,6.25
2023-02-19T06:21:58.020Z,6.38
2023-02-19T06:22:39.872Z,6.82
2023-02-19T06:23:21.497Z,7.10
2023-02-19T06:24:07.915Z,6.47
2023-02-19T06:24:49.923Z,6.15
2023-02-19T06:25:31.550Z,6.95
2023-02-19T06:26:20.309Z,6.28
2023-02-19T06:27:01.990Z,5.88
2023-02-19T06:27:43.620Z,6.18
2023-02-19T06:28:25.246Z,5.82
2023-02-19T06:29:07.130Z,5.82
2023-02-19T06:29:48.777Z,5.75
2023-02-19T06:30:30.865Z,5.90
2023-02-19T06:31:13.587Z,5.80
2023-02-19T06:31:55.615Z,6.20
2023-02-19T06:32:37.626Z,6.75
2023-02-19T06:33:19.246Z,6.20
2023-02-19T06:34:04.154Z,6.63
2023-02-19T06:34:46.020Z,6.75
2023-02-19T06:35:27.726Z,7.40
2023-02-19T06:36:18.150Z,7.90
2023-02-19T06:37:00.135Z,8.18
2023-02-19T06:37:41.819Z,7.70
2023-02-19T06:38:23.570Z,7.70
2023-02-19T06:39:05.612Z,7.72
2023-02-19T06:39:47.388Z,7.03
2023-02-19T06:40:29.427Z,7.40
2023-02-19T06:41:12.352Z,6.68
2023-02-19T06:43:46.498Z,6.40
2023-02-19T06:44:28.193Z,6.95
2023-02-19T06:45:09.882Z,7.00
2023-02-19T06:45:51.503Z,6.53
2023-02-19T06:46:34.100Z,6.35
2023-02-19T06:47:15.739Z,6.35
2023-02-19T06:47:57.503Z,5.93
2023-02-19T06:48:40.547Z,5.28
2023-02-19T06:49:22.275Z,5.90
2023-02-19T06:50:04.048Z,5.20
2023-02-19T06:50:45.781Z,5.25
2023-02-19T06:51:29.654Z,5.25
2023-02-19T06:52:11.283Z,4.97
2023-02-19T06:52:52.902Z,4.90
2023-02-19T06:53:34.536Z,4.70
2023-02-19T06:54:16.158Z,4.55
2023-02-19T06:54:57.820Z,4.05
2023-02-19T06:55:40.428Z,4.18
2023-02-19T06:56:29.909Z,3.70
2023-02-19T06:57:11.580Z,3.50
2023-02-19T06:57:53.290Z,3.78
2023-02-19T06:58:35.047Z,3.70
2023-02-19T06:59:19.353Z,3.72
2023-02-19T07:00:01.005Z,3.92
2023-02-19T07:00:42.666Z,3.55
2023-02-19T07:01:24.430Z,3.15
2023-02-19T07:02:06.090Z,3.13
2023-02-19T07:02:47.752Z,3.20
2023-02-19T07:03:29.560Z,3.50
2023-02-19T07:04:11.356Z,3.33
2023-02-19T07:04:53.001Z,2.90
2023-02-19T07:05:34.655Z,3.38
2023-02-19T07:06:16.354Z,3.22
2023-02-19T07:06:58.123Z,3.25
2023-02-19T07:07:39.892Z,3.25
2023-02-19T07:08:21.592Z,2.88
2023-02-19T07:09:04.776Z,2.75
2023-02-19T07:09:46.419Z,3.22
2023-02-19T07:10:28.058Z,2.78
2023-02-19T07:11:10.097Z,3.00
2023-02-19T07:11:52.345Z,2.72
2023-02-19T07:12:34.028Z,3.35
2023-02-19T07:13:17.445Z,3.03
2023-02-19T07:14:00.764Z,3.25
2023-02-19T07:14:42.393Z,2.95
2023-02-19T07:15:24.097Z,2.97
2023-02-19T07:16:08.852Z,2.95
2023-02-19T07:16:51.099Z,2.70
2023-02-19T07:17:34.251Z,3.08
2023-02-19T07:18:15.923Z,3.30
2023-02-19T07:18:59.014Z,3.13
2023-02-19T07:19:40.978Z,3.20
2023-02-19T07:20:22.688Z,3.45
2023-02-19T07:21:06.365Z,3.20
2023-02-19T07:21:48.063Z,3.92
2023-02-19T07:22:29.686Z,3.47
2023-02-19T07:23:11.305Z,3.10
2023-02-19T07:23:53.427Z,3.70
2023-02-19T07:24:35.082Z,3.42
2023-02-19T07:25:16.806Z,3.30
2023-02-19T07:25:58.693Z,3.50
2023-02-19T07:26:40.343Z,3.47
2023-02-19T07:27:21.999Z,3.05
2023-02-19T07:28:03.730Z,3.28
2023-02-19T07:28:47.283Z,3.40
2023-02-19T07:29:28.978Z,3.20
2023-02-19T07:30:11.144Z,3.00
2023-02-19T07:30:53.590Z,2.83
2023-02-19T07:31:35.442Z,3.10
2023-02-19T07:32:17.175Z,2.45
2023-02-19T07:32:58.850Z,2.80
2023-02-19T07:33:43.767Z,3.60
2023-02-19T07:34:25.473Z,3.10
2023-02-19T07:35:07.512Z,3.22
2023-02-19T07:35:50.447Z,3.08
2023-02-19T07:36:32.111Z,3.13
2023-02-19T07:37:13.720Z,2.97
2023-02-19T07:37:55.419Z,3.15
2023-02-19T07:38:37.252Z,2.58
2023-02-19T07:39:18.871Z,2.80
2023-02-19T07:40:00.646Z,2.72
2023-02-19T07:40:42.250Z,2.90
2023-02-19T07:41:25.025Z,2.60
2023-02-19T07:42:06.672Z,3.00
2023-02-19T07:42:48.272Z,3.35
2023-02-19T07:43:34.350Z,3.03
2023-02-19T07:44:16.748Z,3.50
2023-02-19T07:45:00.604Z,3.00
2023-02-19T07:45:42.455Z,3.53
2023-02-19T07:46:25.050Z,3.40
2023-02-19T07:47:06.744Z,3.75
2023-02-19T07:47:48.435Z,3.28
2023-02-19T07:48:30.091Z,3.45
2023-02-19T07:49:11.831Z,3.45
2023-02-19T07:49:53.663Z,3.60
2023-02-19T07:50:35.441Z,3.10
2023-02-19T07:51:19.638Z,3.13
2023-02-19T07:52:01.549Z,3.95
2023-02-19T07:52:43.203Z,3.67
2023-02-19T07:53:26.218Z,2.83
2023-02-19T07:54:08.268Z,2.97
2023-02-19T07:54:50.117Z,3.15
2023-02-19T07:55:32.904Z,3.38
2023-02-19T07:56:14.648Z,3.08
2023-02-19T07:56:56.289Z,2.72
2023-02-19T07:57:37.941Z,2.78
2023-02-19T07:58:20.148Z,2.90
2023-02-19T07:59:01.816Z,3.00
2023-02-19T07:59:43.532Z,2.63
2023-02-19T08:00:26.192Z,2.30
2023-02-19T08:01:14.689Z,2.95
2023-02-19T08:02:14.942Z,2.80
2023-02-19T08:03:03.125Z,2.30
2023-02-19T08:03:45.449Z,2.47
2023-02-19T08:04:27.087Z,2.22
2023-02-19T08:05:08.844Z,2.80
2023-02-19T08:05:51.503Z,2.53
2023-02-19T08:06:33.178Z,2.20
2023-02-19T08:07:14.954Z,2.78
2023-02-19T08:07:57.610Z,2.08
2023-02-19T08:08:39.809Z,3.28
2023-02-19T08:09:21.538Z,2.30
2023-02-19T08:10:23.358Z,2.22
2023-02-19T08:11:24.549Z,2.70
2023-02-19T08:12:25.217Z,2.25
2023-02-19T08:13:25.347Z,2.33
2023-02-19T08:14:07.020Z,2.30
2023-02-19T08:14:48.714Z,2.67
2023-02-19T08:15:30.527Z,2.15
2023-02-19T08:16:21.832Z,2.33
2023-02-19T08:17:08.462Z,2.42
2023-02-19T08:17:50.142Z,2.30
2023-02-19T08:18:32.797Z,2.13
2023-02-19T08:19:14.485Z,2.40
2023-02-19T08:19:56.150Z,2.40
2023-02-19T08:20:38.253Z,2.15
2023-02-19T08:21:20.566Z,2.10
2023-02-19T08:22:02.335Z,2.65
2023-02-19T08:22:43.954Z,2.05
2023-02-19T08:23:26.712Z,2.50
2023-02-19T08:24:08.534Z,2.50
2023-02-19T08:24:50.259Z,2.10
2023-02-19T08:25:32.804Z,2.10
2023-02-19T08:26:14.528Z,2.38
2023-02-19T08:26:56.248Z,2.25
2023-02-19T08:27:37.946Z,2.10
2023-02-19T08:28:20.232Z,2.15
2023-02-19T08:29:02.798Z,2.05
2023-02-19T08:29:44.379Z,2.17
2023-02-19T08:30:31.010Z,2.22
2023-02-19T08:31:13.710Z,2.30
2023-02-19T08:31:55.646Z,2.45
2023-02-19T08:32:39.845Z,2.67
2023-02-19T08:33:21.877Z,3.15
2023-02-19T08:34:03.939Z,2.20
2023-02-19T08:34:45.635Z,2.85
2023-02-19T08:35:28.602Z,2.15
2023-02-19T08:36:11.311Z,2.60
2023-02-19T08:36:53.012Z,2.45
2023-02-19T08:37:34.697Z,2.00
2023-02-19T08:38:16.580Z,2.13
2023-02-19T08:38:58.391Z,2.03
2023-02-19T08:39:40.230Z,2.13
2023-02-19T08:40:22.254Z,2.10
2023-02-19T08:41:09.049Z,2.70
2023-02-19T08:41:51.154Z,2.30
2023-02-19T08:42:32.917Z,2.63
2023-02-19T08:43:16.500Z,2.10
2023-02-19T08:43:58.365Z,1.85
2023-02-19T08:44:40.228Z,2.10
2023-02-19T08:45:24.237Z,2.10
2023-02-19T08:46:07.690Z,2.47
2023-02-19T08:46:49.454Z,2.10
2023-02-19T08:47:31.304Z,4.75
2023-02-19T08:48:13.462Z,2.17
2023-02-19T08:48:55.208Z,2.05
2023-02-19T08:49:36.946Z,2.58
2023-02-19T08:50:18.645Z,2.25
2023-02-19T08:51:07.005Z,2.95
2023-02-19T08:51:48.744Z,2.88
2023-02-19T08:52:31.042Z,2.42
2023-02-19T08:53:12.756Z,1.77
2023-02-19T08:53:54.440Z,2.13
2023-02-19T08:54:37.266Z,2.72
2023-02-19T08:55:19.465Z,2.00
2023-02-19T08:56:16.244Z,2.92
2023-02-19T08:56:58.626Z,2.08
2023-02-19T08:57:40.359Z,2.03
2023-02-19T08:58:22.762Z,1.77
2023-02-19T08:59:04.557Z,2.22
2023-02-19T08:59:46.323Z,1.73
2023-02-19T09:00:28.050Z,1.70
2023-02-19T09:01:15.833Z,1.95
2023-02-19T09:02:00.718Z,2.08
2023-02-19T09:02:45.139Z,1.88
2023-02-19T09:03:26.845Z,2.88
2023-02-19T09:04:12.157Z,1.92
2023-02-19T09:04:53.935Z,2.13
2023-02-19T09:05:35.730Z,1.65
2023-02-19T09:06:19.726Z,1.80
2023-02-19T09:07:01.391Z,2.17
2023-02-19T09:07:43.600Z,2.40
2023-02-19T09:08:25.454Z,2.08
2023-02-19T09:09:07.201Z,2.30
2023-02-19T09:09:48.987Z,2.10
2023-02-19T09:10:30.760Z,2.30
2023-02-19T09:11:12.907Z,2.10
2023-02-19T09:11:55.037Z,3.17
2023-02-19T09:12:38.293Z,1.90
2023-02-19T09:13:20.041Z,2.28
2023-02-19T09:14:02.159Z,2.28
2023-02-19T09:14:43.928Z,1.73
2023-02-19T09:15:25.833Z,2.22
2023-02-19T09:16:08.170Z,2.00
2023-02-19T09:16:49.906Z,1.92
2023-02-19T09:17:31.646Z,2.00
2023-02-19T09:18:13.331Z,2.70
2023-02-19T09:18:55.041Z,2.30
2023-02-19T09:19:37.072Z,2.25
2023-02-19T09:20:19.126Z,1.83
2023-02-19T09:21:05.552Z,1.92
2023-02-19T09:21:47.249Z,2.60
2023-02-19T09:22:28.923Z,1.90
2023-02-19T09:23:10.626Z,2.78
2023-02-19T09:23:52.491Z,2.30
2023-02-19T09:24:34.117Z,2.08
2023-02-19T09:25:15.930Z,3.10
2023-02-19T09:26:03.288Z,2.35
2023-02-19T09:26:45.138Z,2.15
2023-02-19T09:27:27.880Z,3.53
2023-02-19T09:28:09.648Z,1.88
2023-02-19T09:28:51.479Z,2.20
2023-02-19T09:29:34.485Z,2.08
2023-02-19T09:30:17.342Z,2.17
2023-02-19T09:31:05.181Z,2.15
2023-02-19T09:31:47.340Z,2.13
2023-02-19T09:32:32.313Z,2.30
2023-02-19T09:33:13.971Z,2.38
2023-02-19T09:33:55.698Z,2.40
2023-02-19T09:34:39.088Z,2.05
2023-02-19T09:35:20.786Z,3.20
2023-02-19T09:36:03.772Z,2.72
2023-02-19T09:36:49.068Z,3.70
2023-02-19T09:37:33.183Z,2.33
2023-02-19T09:38:15.900Z,2.15
2023-02-19T09:38:58.632Z,2.17
2023-02-19T09:39:40.371Z,2.55
2023-02-19T09:40:22.467Z,2.63
2023-02-19T09:41:14.530Z,2.58
2023-02-19T09:42:02.801Z,2.05
2023-02-19T09:42:44.552Z,2.75
2023-02-19T09:43:29.817Z,1.80
2023-02-19T09:44:14.729Z,2.10
2023-02-19T09:44:59.290Z,3.83
2023-02-19T09:45:41.794Z,2.03
2023-02-19T09:46:33.161Z,1.52
2023-02-19T09:47:20.434Z,1.63
2023-02-19T09:48:02.253Z,2.00
2023-02-19T09:48:43.946Z,1.73
2023-02-19T09:49:49.955Z,1.88
2023-02-19T09:50:39.122Z,2.58
2023-02-19T09:51:21.937Z,2.17
2023-02-19T09:52:18.225Z,2.53
2023-02-19T09:53:04.592Z,3.58
2023-02-19T09:53:50.852Z,2.40
2023-02-19T09:54:34.454Z,1.75
2023-02-19T09:55:20.638Z,2.28
2023-02-19T09:56:02.369Z,2.22
2023-02-19T09:56:44.016Z,1.85
2023-02-19T09:57:29.692Z,2.15
2023-02-19T09:58:35.996Z,2.83
2023-02-19T09:59:22.149Z,2.45
2023-02-19T10:00:13.563Z,2.00
2023-02-19T10:00:58.134Z,2.58
2023-02-19T10:01:41.519Z,2.92
2023-02-19T10:02:25.739Z,2.10
2023-02-19T10:03:14.974Z,2.50
2023-02-19T10:03:56.850Z,3.03